Terminal Aerodrome Forecast
Issued by NWS Sterling, VA

Current Version | Previous Version | Graphics & Text | Print | Product List | Glossary On
Versions: 1 2 3 4 5 6 7 8 9 10 11 12 13 14 15 16 17 18 19 20 21 22 23 24 25
000
FTUS41 KLWX 141740
TAFDCA
TAF
KDCA 141740Z 1418/1518 13005KT P6SM -SHRA OVC090
     FM150000 12005KT P6SM OVC090
     FM150600 VRB03KT P6SM OVC025
     FM150900 VRB03KT P6SM OVC050
     FM151300 VRB03KT P6SM OVC025=

USA.gov is the U.S. government's official web portal to all federal, state and local government web resources and services.